createdAt,value
2022-12-04T00:01:05.962Z,13.17
2022-12-04T00:04:03.928Z,14.60
2022-12-04T00:07:01.869Z,14.60
2022-12-04T00:10:00.007Z,15.30
2022-12-04T00:12:59.299Z,14.30
2022-12-04T00:16:00.229Z,14.47
2022-12-04T00:18:59.140Z,13.05
2022-12-04T00:21:57.109Z,14.03
2022-12-04T00:24:54.934Z,14.80
2022-12-04T00:27:52.840Z,13.02
2022-12-04T00:30:50.612Z,14.77
2022-12-04T00:33:48.578Z,14.83
2022-12-04T00:36:46.507Z,15.57
2022-12-04T00:39:44.572Z,15.30
2022-12-04T00:42:42.569Z,15.02
2022-12-04T00:45:40.420Z,15.00
2022-12-04T00:48:38.341Z,14.67
2022-12-04T00:51:36.181Z,15.18
2022-12-04T00:54:33.999Z,16.07
2022-12-04T00:57:32.117Z,15.80
2022-12-04T01:00:29.998Z,14.60
2022-12-04T01:03:28.040Z,16.33
2022-12-04T01:06:29.186Z,15.10
2022-12-04T01:09:27.134Z,16.13
2022-12-04T01:12:25.267Z,16.77
2022-12-04T01:15:23.082Z,16.37
2022-12-04T01:18:21.073Z,15.93
2022-12-04T01:21:19.450Z,16.90
2022-12-04T01:24:17.519Z,16.93
2022-12-04T01:27:15.513Z,17.60
2022-12-04T01:30:13.963Z,14.87
2022-12-04T01:33:11.820Z,14.27
2022-12-04T01:36:12.893Z,15.17
2022-12-04T01:39:10.700Z,18.50
2022-12-04T01:42:13.888Z,15.90
2022-12-04T01:45:37.528Z,16.85
2022-12-04T01:48:40.748Z,17.20
2022-12-04T01:51:42.379Z,14.25
2022-12-04T01:54:43.921Z,14.53
2022-12-04T01:57:43.189Z,15.80
2022-12-04T02:00:41.129Z,16.17
2022-12-04T02:03:39.696Z,15.63
2022-12-04T02:06:37.520Z,17.03
2022-12-04T02:09:37.146Z,15.10
2022-12-04T02:12:49.940Z,15.63
2022-12-04T02:16:15.116Z,13.90
2022-12-04T02:19:43.739Z,14.80
2022-12-04T02:23:12.246Z,14.53
2022-12-04T02:26:33.453Z,13.57
2022-12-04T02:29:54.047Z,12.77
2022-12-04T02:33:04.284Z,12.53
2022-12-04T02:36:22.483Z,12.57
2022-12-04T02:39:31.605Z,11.37
2022-12-04T02:42:48.954Z,10.10
2022-12-04T02:45:53.615Z,9.33
2022-12-04T02:48:54.321Z,14.03
2022-12-04T02:51:55.631Z,13.10
2022-12-04T02:55:01.102Z,11.93
2022-12-04T02:58:08.360Z,13.13
2022-12-04T03:01:24.462Z,18.80
2022-12-04T03:04:26.692Z,20.03
2022-12-04T03:07:33.775Z,20.87
2022-12-04T03:10:37.493Z,19.00
2022-12-04T03:13:47.119Z,23.60
2022-12-04T03:16:46.842Z,26.58
2022-12-04T03:19:52.744Z,22.45
2022-12-04T03:22:58.868Z,22.57
2022-12-04T03:26:09.419Z,22.38
2022-12-04T03:29:24.251Z,22.20
2022-12-04T03:32:32.809Z,23.80
2022-12-04T03:35:47.227Z,25.20
2022-12-04T03:39:04.226Z,25.40
2022-12-04T03:42:12.676Z,21.83
2022-12-04T03:45:26.304Z,18.90
2022-12-04T03:48:32.240Z,17.70
2022-12-04T03:51:39.179Z,19.03
2022-12-04T03:54:45.393Z,17.70
2022-12-04T03:57:46.413Z,16.80
2022-12-04T04:00:48.152Z,13.67
2022-12-04T04:04:10.919Z,13.27
2022-12-04T04:10:15.322Z,11.65
2022-12-04T04:13:33.210Z,11.82
2022-12-04T04:16:49.862Z,14.85
2022-12-04T04:20:09.199Z,13.27
2022-12-04T04:23:26.159Z,13.65
2022-12-04T04:26:27.541Z,12.60
2022-12-04T04:29:27.001Z,12.93
2022-12-04T04:32:42.557Z,12.45
2022-12-04T04:35:53.256Z,12.13
2022-12-04T04:39:06.541Z,11.40
2022-12-04T04:42:31.867Z,9.13
2022-12-04T04:45:45.633Z,10.70
2022-12-04T04:48:48.244Z,8.95
2022-12-04T04:51:47.096Z,12.07
2022-12-04T04:54:47.486Z,10.48
2022-12-04T04:57:45.483Z,11.35
2022-12-04T05:00:51.937Z,10.52
2022-12-04T05:03:50.037Z,10.48
2022-12-04T05:06:49.490Z,10.18
2022-12-04T05:09:47.424Z,10.85
2022-12-04T05:12:45.332Z,11.82
2022-12-04T05:15:43.688Z,9.77
2022-12-04T05:18:43.982Z,9.95
2022-12-04T05:21:42.316Z,11.45
2022-12-04T05:24:40.207Z,10.27
2022-12-04T05:27:38.282Z,10.45
2022-12-04T05:30:36.100Z,10.13
2022-12-04T05:33:34.224Z,11.38
2022-12-04T05:36:31.998Z,10.73
2022-12-04T05:39:29.969Z,12.40
2022-12-04T05:42:27.948Z,11.85
2022-12-04T05:45:26.088Z,13.13
2022-12-04T05:48:24.057Z,13.93
2022-12-04T05:51:21.984Z,13.07
2022-12-04T05:54:20.374Z,14.52
2022-12-04T05:57:18.267Z,14.77
2022-12-04T06:00:17.116Z,18.42
2022-12-04T06:03:15.643Z,18.45
2022-12-04T06:06:21.116Z,16.60
2022-12-04T06:09:20.056Z,16.75
2022-12-04T06:12:18.150Z,16.10
2022-12-04T06:15:16.052Z,18.30
2022-12-04T06:18:13.985Z,20.10
2022-12-04T06:21:11.834Z,24.02
2022-12-04T06:24:16.045Z,24.08
2022-12-04T06:27:29.268Z,26.45
2022-12-04T06:30:27.519Z,26.90
2022-12-04T06:33:25.873Z,26.05
2022-12-04T06:36:24.516Z,25.35
2022-12-04T06:39:22.855Z,27.38
2022-12-04T06:42:21.366Z,30.15
2022-12-04T06:45:19.217Z,30.90
2022-12-04T06:48:17.188Z,30.02
2022-12-04T06:51:19.480Z,27.08
2022-12-04T06:54:17.494Z,31.40
2022-12-04T06:57:15.353Z,47.28
2022-12-04T07:00:13.680Z,31.45
2022-12-04T07:03:11.490Z,31.27
2022-12-04T07:06:26.278Z,33.55
2022-12-04T07:09:24.005Z,32.22
2022-12-04T07:12:21.989Z,34.30
2022-12-04T07:15:20.232Z,34.08
2022-12-04T07:18:18.205Z,33.90
2022-12-04T07:21:19.432Z,35.70
2022-12-04T07:24:18.191Z,37.22
2022-12-04T07:27:16.003Z,42.17
2022-12-04T07:30:15.872Z,35.45
2022-12-04T07:33:14.838Z,36.80
2022-12-04T07:36:15.559Z,36.38
2022-12-04T07:39:13.946Z,36.67
2022-12-04T07:42:18.469Z,32.50
2022-12-04T07:45:21.305Z,45.42
2022-12-04T07:48:19.621Z,47.75
2022-12-04T07:51:20.391Z,32.92
2022-12-04T07:54:18.385Z,32.90
2022-12-04T07:57:16.334Z,32.58
2022-12-04T08:00:14.926Z,36.50
2022-12-04T08:03:12.811Z,38.20
2022-12-04T08:06:11.282Z,55.53
2022-12-04T08:09:10.443Z,50.28
2022-12-04T08:12:08.868Z,35.88
2022-12-04T08:15:07.356Z,39.10
2022-12-04T08:18:05.449Z,36.15
2022-12-04T08:21:06.639Z,33.78
2022-12-04T08:24:04.897Z,35.45
2022-12-04T08:27:02.916Z,34.13
2022-12-04T08:30:00.923Z,34.60
2022-12-04T08:32:58.762Z,34.42
2022-12-04T08:35:56.762Z,35.63
2022-12-04T08:38:55.108Z,36.83
2022-12-04T08:41:56.951Z,37.20
2022-12-04T08:44:55.143Z,38.08
2022-12-04T08:47:53.169Z,37.30
2022-12-04T08:50:51.310Z,37.55
2022-12-04T08:53:49.510Z,38.13
2022-12-04T08:56:47.218Z,40.42
2022-12-04T08:59:45.047Z,40.65
2022-12-04T09:02:43.097Z,38.72
2022-12-04T09:05:42.308Z,42.45
2022-12-04T09:08:40.373Z,40.58
2022-12-04T09:11:38.337Z,42.50
2022-12-04T09:14:36.316Z,43.10
2022-12-04T09:17:36.915Z,65.43
2022-12-04T09:20:35.055Z,48.22
2022-12-04T09:23:34.183Z,45.35
2022-12-04T09:26:33.995Z,44.38
2022-12-04T09:29:32.723Z,49.30
2022-12-04T09:32:30.879Z,48.42
2022-12-04T09:35:30.534Z,47.22
2022-12-04T09:38:29.809Z,48.03
2022-12-04T09:42:03.066Z,52.10
2022-12-04T09:45:19.710Z,48.90
2022-12-04T09:48:19.835Z,57.08
2022-12-04T09:51:23.024Z,62.30
2022-12-04T09:54:24.534Z,81.70
2022-12-04T09:57:30.057Z,47.28
2022-12-04T10:00:28.979Z,48.83
2022-12-04T10:03:29.533Z,49.78
2022-12-04T10:06:33.244Z,53.10
2022-12-04T10:09:46.370Z,48.65
2022-12-04T10:16:08.495Z,48.00
2022-12-04T10:19:34.250Z,53.88
2022-12-04T10:22:59.219Z,45.65
2022-12-04T10:25:57.955Z,50.50
2022-12-04T10:29:03.231Z,48.50
2022-12-04T10:32:16.792Z,47.57
2022-12-04T10:35:30.016Z,47.33
2022-12-04T10:38:45.260Z,51.37
2022-12-04T10:42:02.080Z,47.60
2022-12-04T10:45:00.079Z,49.20
2022-12-04T10:47:58.998Z,45.83
2022-12-04T10:50:57.714Z,48.07
2022-12-04T10:53:57.496Z,46.77
2022-12-04T10:56:59.315Z,46.13
2022-12-04T10:59:57.979Z,47.53
2022-12-04T11:02:58.199Z,48.43
2022-12-04T11:06:03.975Z,55.07
2022-12-04T11:09:04.357Z,55.27
2022-12-04T11:12:20.554Z,54.43
2022-12-04T11:15:18.531Z,47.90
2022-12-04T11:18:21.311Z,55.63
2022-12-04T11:21:28.266Z,52.10
2022-12-04T11:24:33.714Z,49.60
2022-12-04T11:27:34.958Z,49.10
2022-12-04T11:30:36.320Z,51.70
2022-12-04T11:33:38.998Z,48.50
2022-12-04T11:36:41.510Z,60.72
2022-12-04T11:39:42.799Z,56.17
2022-12-04T11:42:40.557Z,93.37
2022-12-04T11:45:38.914Z,62.60
2022-12-04T11:48:45.818Z,54.50
2022-12-04T11:52:07.820Z,50.77
2022-12-04T11:55:29.073Z,50.72
2022-12-04T11:58:50.454Z,51.73
2022-12-04T12:01:58.447Z,45.83
2022-12-04T12:05:12.015Z,43.07
2022-12-04T12:08:40.524Z,47.63
2022-12-04T12:11:52.204Z,46.50
2022-12-04T12:15:09.137Z,46.47
2022-12-04T12:18:25.083Z,45.40
2022-12-04T12:21:28.430Z,44.90
2022-12-04T12:27:58.414Z,42.37
2022-12-04T12:31:14.176Z,40.53
2022-12-04T12:34:19.091Z,44.43
2022-12-04T12:37:35.373Z,46.13
2022-12-04T12:40:41.128Z,48.70
2022-12-04T12:43:40.369Z,47.63
2022-12-04T12:46:49.542Z,47.67
2022-12-04T12:50:10.899Z,52.50
2022-12-04T12:53:16.092Z,60.63
2022-12-04T12:56:14.960Z,72.00
2022-12-04T12:59:20.112Z,61.30
2022-12-04T13:02:40.417Z,57.57
2022-12-04T13:05:44.021Z,71.17
2022-12-04T13:11:51.545Z,57.13
2022-12-04T13:14:49.556Z,53.97
2022-12-04T13:17:52.807Z,60.50
2022-12-04T13:20:55.949Z,59.25
2022-12-04T13:24:24.624Z,50.15
2022-12-04T13:27:46.300Z,46.50
2022-12-04T13:30:57.525Z,47.13
2022-12-04T13:34:18.170Z,51.10
2022-12-04T13:37:37.883Z,48.83
2022-12-04T13:40:41.117Z,53.47
2022-12-04T13:43:49.248Z,47.83
2022-12-04T13:47:00.170Z,50.33
2022-12-04T13:50:24.388Z,48.70
2022-12-04T13:53:39.079Z,49.40
2022-12-04T13:56:37.350Z,54.13
2022-12-04T13:59:38.915Z,55.00
2022-12-04T14:02:38.593Z,51.63
2022-12-04T14:05:44.910Z,49.43
2022-12-04T14:08:44.762Z,47.13
2022-12-04T14:11:47.083Z,46.90
2022-12-04T14:14:54.031Z,47.07
2022-12-04T14:18:18.737Z,46.90
2022-12-04T14:21:16.549Z,47.90
2022-12-04T14:24:31.224Z,45.60
2022-12-04T14:27:35.361Z,49.30
2022-12-04T14:30:40.442Z,45.70
2022-12-04T14:33:45.336Z,44.87
2022-12-04T14:36:46.964Z,42.20
2022-12-04T14:39:48.275Z,44.13
2022-12-04T14:42:53.129Z,43.97
2022-12-04T14:46:02.072Z,47.50
2022-12-04T14:49:21.283Z,49.10
2022-12-04T14:52:41.224Z,42.90
2022-12-04T14:56:07.476Z,42.53
2022-12-04T14:59:16.534Z,41.70
2022-12-04T15:02:21.049Z,39.43
2022-12-04T15:05:29.495Z,41.13
2022-12-04T15:08:27.351Z,46.03
2022-12-04T15:11:41.566Z,43.47
2022-12-04T15:14:49.656Z,43.73
2022-12-04T15:18:04.876Z,50.63
2022-12-04T15:21:05.158Z,60.50
2022-12-04T15:24:08.544Z,55.13
2022-12-04T15:27:07.578Z,54.57
2022-12-04T15:30:05.944Z,56.27
2022-12-04T15:33:04.618Z,60.33
2022-12-04T15:36:20.948Z,60.70
2022-12-04T15:39:24.758Z,57.50
2022-12-04T15:42:31.642Z,55.78
2022-12-04T15:45:32.993Z,61.23
2022-12-04T15:48:32.475Z,62.53
2022-12-04T15:51:30.720Z,61.37
2022-12-04T15:54:28.782Z,58.10
2022-12-04T15:57:43.463Z,53.70
2022-12-04T16:00:43.432Z,55.40
2022-12-04T16:03:50.882Z,55.60
2022-12-04T16:06:51.295Z,53.07
2022-12-04T16:10:02.612Z,58.50
2022-12-04T16:13:04.010Z,60.73
2022-12-04T16:16:07.105Z,55.43
2022-12-04T16:19:10.663Z,50.42
2022-12-04T16:22:20.256Z,50.23
2022-12-04T16:25:18.706Z,54.97
2022-12-04T16:28:16.526Z,50.23
2022-12-04T16:31:15.284Z,51.87
2022-12-04T16:34:14.397Z,51.37
2022-12-04T16:37:14.959Z,52.60
2022-12-04T16:40:14.054Z,51.00
2022-12-04T16:43:15.091Z,54.87
2022-12-04T16:46:19.814Z,60.93
2022-12-04T16:49:17.636Z,65.87
2022-12-04T16:52:15.640Z,63.97
2022-12-04T16:55:24.945Z,68.93
2022-12-04T16:58:22.891Z,65.70
2022-12-04T17:01:34.819Z,60.23
2022-12-04T17:04:32.649Z,55.13
2022-12-04T17:07:30.518Z,61.47
2022-12-04T17:10:30.089Z,61.20
2022-12-04T17:13:28.282Z,63.37
2022-12-04T17:16:26.441Z,63.17
2022-12-04T17:19:24.291Z,62.83
2022-12-04T17:22:26.928Z,71.53
2022-12-04T17:25:24.902Z,75.68
2022-12-04T17:28:22.678Z,71.07
2022-12-04T17:31:24.007Z,71.87
2022-12-04T17:34:22.542Z,71.47
2022-12-04T17:37:21.791Z,73.07
2022-12-04T17:40:19.890Z,75.63
2022-12-04T17:43:22.101Z,68.93
2022-12-04T17:46:23.388Z,72.47
2022-12-04T17:49:21.505Z,63.93
2022-12-04T17:52:19.806Z,61.57
2022-12-04T17:55:18.112Z,59.00
2022-12-04T17:58:15.822Z,61.23
2022-12-04T18:01:17.000Z,61.97
2022-12-04T18:04:14.960Z,58.83
2022-12-04T18:07:13.083Z,59.27
2022-12-04T18:10:11.103Z,58.17
2022-12-04T18:13:09.050Z,54.90
2022-12-04T18:16:09.514Z,53.70
2022-12-04T18:19:07.814Z,55.63
2022-12-04T18:22:05.677Z,55.03
2022-12-04T18:25:03.830Z,56.17
2022-12-04T18:28:01.910Z,54.27
2022-12-04T18:31:05.014Z,55.33
2022-12-04T18:34:05.399Z,53.05
2022-12-04T18:37:03.356Z,53.30
2022-12-04T18:40:06.221Z,53.23
2022-12-04T18:46:07.733Z,50.53
2022-12-04T18:49:06.668Z,52.53
2022-12-04T18:52:04.563Z,51.43
2022-12-04T18:55:02.999Z,52.77
2022-12-04T18:58:01.068Z,51.97
2022-12-04T19:01:06.359Z,49.97
2022-12-04T19:04:07.017Z,48.10
2022-12-04T19:07:05.779Z,49.43
2022-12-04T19:10:11.674Z,49.50
2022-12-04T19:13:09.738Z,48.70
2022-12-04T19:16:13.556Z,46.67
2022-12-04T19:19:13.478Z,43.30
2022-12-04T19:22:11.561Z,45.17
2022-12-04T19:25:09.625Z,40.50
2022-12-04T19:28:07.810Z,40.77
2022-12-04T19:31:05.892Z,39.13
2022-12-04T19:34:04.525Z,37.53
2022-12-04T19:37:02.581Z,39.20
2022-12-04T19:40:00.523Z,38.50
2022-12-04T19:43:02.855Z,40.10
2022-12-04T19:46:01.509Z,36.90
2022-12-04T19:49:04.222Z,37.30
2022-12-04T19:52:02.159Z,36.47
2022-12-04T19:54:59.923Z,36.13
2022-12-04T19:57:57.841Z,37.37
2022-12-04T20:00:57.015Z,35.50
2022-12-04T20:03:55.613Z,40.67
2022-12-04T20:06:54.188Z,36.63
2022-12-04T20:09:55.178Z,41.83
2022-12-04T20:12:53.419Z,38.17
2022-12-04T20:15:51.721Z,42.47
2022-12-04T20:18:49.846Z,45.90
2022-12-04T20:21:48.175Z,37.13
2022-12-04T20:24:46.039Z,44.97
2022-12-04T20:27:43.738Z,41.97
2022-12-04T20:30:42.016Z,42.93
2022-12-04T20:33:41.558Z,42.43
2022-12-04T20:36:43.641Z,38.53
2022-12-04T20:39:41.788Z,37.80
2022-12-04T20:42:39.749Z,36.53
2022-12-04T20:45:37.717Z,35.43
2022-12-04T20:48:35.570Z,34.00
2022-12-04T20:51:37.698Z,34.03
2022-12-04T20:54:41.378Z,34.27
2022-12-04T20:57:39.914Z,35.83
2022-12-04T21:00:37.920Z,37.63
2022-12-04T21:03:35.969Z,47.10
2022-12-04T21:06:39.001Z,43.50
2022-12-04T21:09:37.205Z,41.80
2022-12-04T21:12:50.316Z,44.40
2022-12-04T21:16:03.511Z,54.50
2022-12-04T21:19:02.286Z,61.13
2022-12-04T21:22:00.309Z,56.17
2022-12-04T21:24:58.211Z,54.50
2022-12-04T21:27:56.172Z,53.27
2022-12-04T21:30:54.021Z,53.53
2022-12-04T21:33:52.084Z,55.40
2022-12-04T21:36:49.957Z,51.73
2022-12-04T21:39:47.813Z,50.17
2022-12-04T21:42:45.971Z,49.73
2022-12-04T21:45:46.446Z,47.40
2022-12-04T21:48:44.221Z,50.03
2022-12-04T21:51:58.932Z,50.17
2022-12-04T21:54:57.659Z,48.70
2022-12-04T21:57:55.632Z,52.13
2022-12-04T22:00:53.757Z,44.07
2022-12-04T22:03:52.315Z,33.53
2022-12-04T22:06:51.114Z,28.53
2022-12-04T22:09:49.087Z,34.87
2022-12-04T22:12:50.726Z,31.20
2022-12-04T22:15:48.991Z,28.27
2022-12-04T22:18:47.667Z,31.87
2022-12-04T22:21:45.802Z,26.93
2022-12-04T22:24:43.714Z,24.80
2022-12-04T22:27:42.169Z,27.30
2022-12-04T22:30:40.315Z,26.83
2022-12-04T22:33:39.072Z,28.77
2022-12-04T22:36:36.817Z,28.27
2022-12-04T22:39:34.758Z,30.10
2022-12-04T22:42:32.843Z,28.57
2022-12-04T22:45:30.730Z,32.60
2022-12-04T22:48:31.869Z,33.60
2022-12-04T22:51:30.458Z,33.93
2022-12-04T22:54:28.652Z,36.30
2022-12-04T22:57:26.587Z,34.33
2022-12-04T23:00:24.573Z,34.43
2022-12-04T23:03:22.842Z,32.83
2022-12-04T23:06:22.149Z,34.67
2022-12-04T23:09:20.304Z,40.90
2022-12-04T23:12:18.256Z,39.60
2022-12-04T23:15:16.331Z,40.97
2022-12-04T23:18:14.457Z,38.70
2022-12-04T23:21:14.285Z,35.77
2022-12-04T23:24:13.782Z,37.63
2022-12-04T23:27:11.631Z,37.47
2022-12-04T23:30:10.071Z,38.00
2022-12-04T23:33:07.995Z,35.00
2022-12-04T23:36:07.869Z,37.60
2022-12-04T23:39:08.723Z,36.13
2022-12-04T23:42:06.851Z,36.20
2022-12-04T23:45:05.372Z,38.83
2022-12-04T23:48:03.240Z,38.30
2022-12-04T23:51:01.096Z,37.77
2022-12-04T23:53:59.841Z,36.87
2022-12-04T23:56:57.747Z,38.87
2022-12-04T23:59:55.854Z,38.80
